<?xml version="1.0" encoding="UTF-8" standalone="no" ?>
<gpx xmlns="http://www.topografix.com/GPX/1/1" xmlns:xsi="http://www.w3.org/2001/XMLSchema-instance" xsi:schemaLocation="http://www.topografix.com/GPX/1/1 http://www.topografix.com/GPX/1/1/gpx.xsd" version="1.1" creator="VisuGPX - https://www.visugpx.com">
  <metadata>
    <name>VTC_Chambley_Mongolfières</name>
  </metadata>
  <trk>
    <name><![CDATA[30-JUIL-19 21:03:50]]></name>
    <trkseg>
      <trkpt lat="49.10069" lon="6.08618">
        <ele>233</ele>
        <time>2019-07-30T16:54:42Z</time>
      </trkpt>
      <trkpt lat="49.10069" lon="6.08617">
        <ele>233</ele>
        <time>2019-07-30T16:54:53Z</time>
      </trkpt>
      <trkpt lat="49.1006" lon="6.08628">
        <ele>232</ele>
        <time>2019-07-30T16:55:01Z</time>
      </trkpt>
      <trkpt lat="49.1001" lon="6.08685">
        <ele>227</ele>
        <time>2019-07-30T16:55:12Z</time>
      </trkpt>
      <trkpt lat="49.09917" lon="6.08778">
        <ele>218</ele>
        <time>2019-07-30T16:55:22Z</time>
      </trkpt>
      <trkpt lat="49.09897" lon="6.08802">
        <ele>213</ele>
        <time>2019-07-30T16:55:24Z</time>
      </trkpt>
      <trkpt lat="49.09839" lon="6.08858">
        <ele>205</ele>
        <time>2019-07-30T16:55:29Z</time>
      </trkpt>
      <trkpt lat="49.09807" lon="6.08922">
        <ele>195</ele>
        <time>2019-07-30T16:55:33Z</time>
      </trkpt>
      <trkpt lat="49.09775" lon="6.09019">
        <ele>189</ele>
        <time>2019-07-30T16:55:38Z</time>
      </trkpt>
      <trkpt lat="49.09776" lon="6.09141">
        <ele>182</ele>
        <time>2019-07-30T16:55:44Z</time>
      </trkpt>
      <trkpt lat="49.09747" lon="6.09213">
        <ele>174</ele>
        <time>2019-07-30T16:55:49Z</time>
      </trkpt>
      <trkpt lat="49.09703" lon="6.09221">
        <ele>174</ele>
        <time>2019-07-30T16:55:53Z</time>
      </trkpt>
      <trkpt lat="49.0961" lon="6.09207">
        <ele>172</ele>
        <time>2019-07-30T16:56:03Z</time>
      </trkpt>
      <trkpt lat="49.09538" lon="6.09244">
        <ele>170</ele>
        <time>2019-07-30T16:56:14Z</time>
      </trkpt>
      <trkpt lat="49.09513" lon="6.09264">
        <ele>168</ele>
        <time>2019-07-30T16:56:18Z</time>
      </trkpt>
      <trkpt lat="49.09438" lon="6.0929">
        <ele>167</ele>
        <time>2019-07-30T16:56:29Z</time>
      </trkpt>
      <trkpt lat="49.09405" lon="6.09287">
        <ele>168</ele>
        <time>2019-07-30T16:56:34Z</time>
      </trkpt>
      <trkpt lat="49.09353" lon="6.0928">
        <ele>168</ele>
        <time>2019-07-30T16:56:42Z</time>
      </trkpt>
      <trkpt lat="49.09333" lon="6.09263">
        <ele>169</ele>
        <time>2019-07-30T16:56:50Z</time>
      </trkpt>
      <trkpt lat="49.09317" lon="6.09272">
        <ele>168</ele>
        <time>2019-07-30T16:56:56Z</time>
      </trkpt>
      <trkpt lat="49.09234" lon="6.09258">
        <ele>168</ele>
        <time>2019-07-30T16:57:09Z</time>
      </trkpt>
      <trkpt lat="49.09112" lon="6.09248">
        <ele>168</ele>
        <time>2019-07-30T16:57:27Z</time>
      </trkpt>
      <trkpt lat="49.0902" lon="6.09247">
        <ele>168</ele>
        <time>2019-07-30T16:57:43Z</time>
      </trkpt>
      <trkpt lat="49.09011" lon="6.09248">
        <ele>169</ele>
        <time>2019-07-30T16:57:45Z</time>
      </trkpt>
      <trkpt lat="49.08994" lon="6.09252">
        <ele>169</ele>
        <time>2019-07-30T16:57:49Z</time>
      </trkpt>
      <trkpt lat="49.08942" lon="6.09214">
        <ele>169</ele>
        <time>2019-07-30T16:58:00Z</time>
      </trkpt>
      <trkpt lat="49.08844" lon="6.09139">
        <ele>169</ele>
        <time>2019-07-30T16:58:18Z</time>
      </trkpt>
      <trkpt lat="49.08746" lon="6.09064">
        <ele>168</ele>
        <time>2019-07-30T16:58:35Z</time>
      </trkpt>
      <trkpt lat="49.08635" lon="6.08963">
        <ele>169</ele>
        <time>2019-07-30T16:58:55Z</time>
      </trkpt>
      <trkpt lat="49.08512" lon="6.08849">
        <ele>169</ele>
        <time>2019-07-30T16:59:18Z</time>
      </trkpt>
      <trkpt lat="49.08426" lon="6.08769">
        <ele>168</ele>
        <time>2019-07-30T16:59:35Z</time>
      </trkpt>
      <trkpt lat="49.08314" lon="6.08664">
        <ele>171</ele>
        <time>2019-07-30T16:59:58Z</time>
      </trkpt>
      <trkpt lat="49.08238" lon="6.08594">
        <ele>171</ele>
        <time>2019-07-30T17:00:13Z</time>
      </trkpt>
      <trkpt lat="49.08148" lon="6.08507">
        <ele>171</ele>
        <time>2019-07-30T17:00:30Z</time>
      </trkpt>
      <trkpt lat="49.08073" lon="6.08435">
        <ele>171</ele>
        <time>2019-07-30T17:00:45Z</time>
      </trkpt>
      <trkpt lat="49.07985" lon="6.08352">
        <ele>170</ele>
        <time>2019-07-30T17:01:03Z</time>
      </trkpt>
      <trkpt lat="49.07909" lon="6.08274">
        <ele>170</ele>
        <time>2019-07-30T17:01:19Z</time>
      </trkpt>
      <trkpt lat="49.07887" lon="6.08251">
        <ele>170</ele>
        <time>2019-07-30T17:01:24Z</time>
      </trkpt>
      <trkpt lat="49.0782" lon="6.08162">
        <ele>171</ele>
        <time>2019-07-30T17:01:39Z</time>
      </trkpt>
      <trkpt lat="49.0776" lon="6.08073">
        <ele>171</ele>
        <time>2019-07-30T17:01:53Z</time>
      </trkpt>
      <trkpt lat="49.07726" lon="6.08012">
        <ele>170</ele>
        <time>2019-07-30T17:02:02Z</time>
      </trkpt>
      <trkpt lat="49.07687" lon="6.07888">
        <ele>174</ele>
        <time>2019-07-30T17:02:17Z</time>
      </trkpt>
      <trkpt lat="49.07635" lon="6.07758">
        <ele>172</ele>
        <time>2019-07-30T17:02:34Z</time>
      </trkpt>
      <trkpt lat="49.07581" lon="6.07652">
        <ele>172</ele>
        <time>2019-07-30T17:02:50Z</time>
      </trkpt>
      <trkpt lat="49.07571" lon="6.07634">
        <ele>172</ele>
        <time>2019-07-30T17:02:53Z</time>
      </trkpt>
      <trkpt lat="49.07562" lon="6.07613">
        <ele>172</ele>
        <time>2019-07-30T17:02:56Z</time>
      </trkpt>
      <trkpt lat="49.07549" lon="6.07588">
        <ele>172</ele>
        <time>2019-07-30T17:03:00Z</time>
      </trkpt>
      <trkpt lat="49.07544" lon="6.07559">
        <ele>173</ele>
        <time>2019-07-30T17:03:08Z</time>
      </trkpt>
      <trkpt lat="49.07543" lon="6.07549">
        <ele>173</ele>
        <time>2019-07-30T17:03:10Z</time>
      </trkpt>
      <trkpt lat="49.07515" lon="6.07521">
        <ele>173</ele>
        <time>2019-07-30T17:03:17Z</time>
      </trkpt>
      <trkpt lat="49.07473" lon="6.0746">
        <ele>173</ele>
        <time>2019-07-30T17:03:27Z</time>
      </trkpt>
      <trkpt lat="49.07412" lon="6.07412">
        <ele>173</ele>
        <time>2019-07-30T17:03:38Z</time>
      </trkpt>
      <trkpt lat="49.07308" lon="6.07394">
        <ele>172</ele>
        <time>2019-07-30T17:03:55Z</time>
      </trkpt>
      <trkpt lat="49.07218" lon="6.07385">
        <ele>171</ele>
        <time>2019-07-30T17:04:10Z</time>
      </trkpt>
      <trkpt lat="49.07153" lon="6.07356">
        <ele>171</ele>
        <time>2019-07-30T17:04:21Z</time>
      </trkpt>
      <trkpt lat="49.07045" lon="6.07297">
        <ele>171</ele>
        <time>2019-07-30T17:04:39Z</time>
      </trkpt>
      <trkpt lat="49.06959" lon="6.07236">
        <ele>171</ele>
        <time>2019-07-30T17:04:54Z</time>
      </trkpt>
      <trkpt lat="49.06846" lon="6.07153">
        <ele>171</ele>
        <time>2019-07-30T17:05:14Z</time>
      </trkpt>
      <trkpt lat="49.06737" lon="6.0707">
        <ele>173</ele>
        <time>2019-07-30T17:05:33Z</time>
      </trkpt>
      <trkpt lat="49.06621" lon="6.06973">
        <ele>171</ele>
        <time>2019-07-30T17:05:53Z</time>
      </trkpt>
      <trkpt lat="49.06486" lon="6.06863">
        <ele>169</ele>
        <time>2019-07-30T17:06:17Z</time>
      </trkpt>
      <trkpt lat="49.06378" lon="6.06773">
        <ele>170</ele>
        <time>2019-07-30T17:06:36Z</time>
      </trkpt>
      <trkpt lat="49.06283" lon="6.06694">
        <ele>170</ele>
        <time>2019-07-30T17:06:54Z</time>
      </trkpt>
      <trkpt lat="49.06174" lon="6.06601">
        <ele>171</ele>
        <time>2019-07-30T17:07:15Z</time>
      </trkpt>
      <trkpt lat="49.06077" lon="6.06504">
        <ele>172</ele>
        <time>2019-07-30T17:07:34Z</time>
      </trkpt>
      <trkpt lat="49.05989" lon="6.06421">
        <ele>169</ele>
        <time>2019-07-30T17:07:51Z</time>
      </trkpt>
      <trkpt lat="49.05896" lon="6.06338">
        <ele>169</ele>
        <time>2019-07-30T17:08:09Z</time>
      </trkpt>
      <trkpt lat="49.05803" lon="6.0625">
        <ele>171</ele>
        <time>2019-07-30T17:08:27Z</time>
      </trkpt>
      <trkpt lat="49.05754" lon="6.06217">
        <ele>171</ele>
        <time>2019-07-30T17:08:36Z</time>
      </trkpt>
      <trkpt lat="49.05737" lon="6.06193">
        <ele>171</ele>
        <time>2019-07-30T17:08:40Z</time>
      </trkpt>
      <trkpt lat="49.05702" lon="6.06193">
        <ele>172</ele>
        <time>2019-07-30T17:08:48Z</time>
      </trkpt>
      <trkpt lat="49.05686" lon="6.06192">
        <ele>172</ele>
        <time>2019-07-30T17:08:51Z</time>
      </trkpt>
      <trkpt lat="49.05608" lon="6.06166">
        <ele>173</ele>
        <time>2019-07-30T17:09:04Z</time>
      </trkpt>
      <trkpt lat="49.05508" lon="6.06134">
        <ele>173</ele>
        <time>2019-07-30T17:09:20Z</time>
      </trkpt>
      <trkpt lat="49.054" lon="6.06079">
        <ele>170</ele>
        <time>2019-07-30T17:09:39Z</time>
      </trkpt>
      <trkpt lat="49.05284" lon="6.06036">
        <ele>170</ele>
        <time>2019-07-30T17:10:00Z</time>
      </trkpt>
      <trkpt lat="49.05175" lon="6.06004">
        <ele>170</ele>
        <time>2019-07-30T17:10:19Z</time>
      </trkpt>
      <trkpt lat="49.0507" lon="6.05973">
        <ele>169</ele>
        <time>2019-07-30T17:10:37Z</time>
      </trkpt>
      <trkpt lat="49.04976" lon="6.05946">
        <ele>169</ele>
        <time>2019-07-30T17:10:53Z</time>
      </trkpt>
      <trkpt lat="49.04859" lon="6.05913">
        <ele>169</ele>
        <time>2019-07-30T17:11:13Z</time>
      </trkpt>
      <trkpt lat="49.04735" lon="6.05876">
        <ele>170</ele>
        <time>2019-07-30T17:11:34Z</time>
      </trkpt>
      <trkpt lat="49.04623" lon="6.05842">
        <ele>170</ele>
        <time>2019-07-30T17:11:53Z</time>
      </trkpt>
      <trkpt lat="49.045" lon="6.05802">
        <ele>173</ele>
        <time>2019-07-30T17:12:13Z</time>
      </trkpt>
      <trkpt lat="49.04391" lon="6.05748">
        <ele>175</ele>
        <time>2019-07-30T17:12:32Z</time>
      </trkpt>
      <trkpt lat="49.04299" lon="6.05693">
        <ele>175</ele>
        <time>2019-07-30T17:12:50Z</time>
      </trkpt>
      <trkpt lat="49.04184" lon="6.05622">
        <ele>176</ele>
        <time>2019-07-30T17:13:12Z</time>
      </trkpt>
      <trkpt lat="49.04083" lon="6.05561">
        <ele>176</ele>
        <time>2019-07-30T17:13:31Z</time>
      </trkpt>
      <trkpt lat="49.03999" lon="6.05507">
        <ele>177</ele>
        <time>2019-07-30T17:13:47Z</time>
      </trkpt>
      <trkpt lat="49.03896" lon="6.05444">
        <ele>176</ele>
        <time>2019-07-30T17:14:05Z</time>
      </trkpt>
      <trkpt lat="49.03756" lon="6.05348">
        <ele>177</ele>
        <time>2019-07-30T17:14:28Z</time>
      </trkpt>
      <trkpt lat="49.03623" lon="6.05267">
        <ele>176</ele>
        <time>2019-07-30T17:14:49Z</time>
      </trkpt>
      <trkpt lat="49.03511" lon="6.0522">
        <ele>177</ele>
        <time>2019-07-30T17:15:06Z</time>
      </trkpt>
      <trkpt lat="49.03357" lon="6.0516">
        <ele>175</ele>
        <time>2019-07-30T17:15:30Z</time>
      </trkpt>
      <trkpt lat="49.03251" lon="6.0512">
        <ele>174</ele>
        <time>2019-07-30T17:15:47Z</time>
      </trkpt>
      <trkpt lat="49.03134" lon="6.05104">
        <ele>176</ele>
        <time>2019-07-30T17:16:05Z</time>
      </trkpt>
      <trkpt lat="49.03012" lon="6.05115">
        <ele>176</ele>
        <time>2019-07-30T17:16:24Z</time>
      </trkpt>
      <trkpt lat="49.02905" lon="6.05135">
        <ele>174</ele>
        <time>2019-07-30T17:16:41Z</time>
      </trkpt>
      <trkpt lat="49.02796" lon="6.05117">
        <ele>175</ele>
        <time>2019-07-30T17:16:58Z</time>
      </trkpt>
      <trkpt lat="49.02682" lon="6.05092">
        <ele>172</ele>
        <time>2019-07-30T17:17:16Z</time>
      </trkpt>
      <trkpt lat="49.02571" lon="6.05076">
        <ele>173</ele>
        <time>2019-07-30T17:17:33Z</time>
      </trkpt>
      <trkpt lat="49.0247" lon="6.05055">
        <ele>173</ele>
        <time>2019-07-30T17:17:49Z</time>
      </trkpt>
      <trkpt lat="49.0239" lon="6.05036">
        <ele>174</ele>
        <time>2019-07-30T17:18:02Z</time>
      </trkpt>
      <trkpt lat="49.02379" lon="6.0503">
        <ele>174</ele>
        <time>2019-07-30T17:18:04Z</time>
      </trkpt>
      <trkpt lat="49.02351" lon="6.05029">
        <ele>173</ele>
        <time>2019-07-30T17:18:09Z</time>
      </trkpt>
      <trkpt lat="49.02238" lon="6.04985">
        <ele>174</ele>
        <time>2019-07-30T17:18:28Z</time>
      </trkpt>
      <trkpt lat="49.02162" lon="6.04943">
        <ele>174</ele>
        <time>2019-07-30T17:18:43Z</time>
      </trkpt>
      <trkpt lat="49.02075" lon="6.04883">
        <ele>174</ele>
        <time>2019-07-30T17:19:00Z</time>
      </trkpt>
      <trkpt lat="49.01951" lon="6.0479">
        <ele>172</ele>
        <time>2019-07-30T17:19:22Z</time>
      </trkpt>
      <trkpt lat="49.01845" lon="6.04705">
        <ele>173</ele>
        <time>2019-07-30T17:19:41Z</time>
      </trkpt>
      <trkpt lat="49.01735" lon="6.0462">
        <ele>175</ele>
        <time>2019-07-30T17:20:02Z</time>
      </trkpt>
      <trkpt lat="49.01639" lon="6.04561">
        <ele>180</ele>
        <time>2019-07-30T17:20:21Z</time>
      </trkpt>
      <trkpt lat="49.0156" lon="6.04502">
        <ele>180</ele>
        <time>2019-07-30T17:20:39Z</time>
      </trkpt>
      <trkpt lat="49.01545" lon="6.04486">
        <ele>184</ele>
        <time>2019-07-30T17:20:43Z</time>
      </trkpt>
      <trkpt lat="49.01526" lon="6.04465">
        <ele>185</ele>
        <time>2019-07-30T17:20:48Z</time>
      </trkpt>
      <trkpt lat="49.0147" lon="6.04384">
        <ele>186</ele>
        <time>2019-07-30T17:21:05Z</time>
      </trkpt>
      <trkpt lat="49.01412" lon="6.0428">
        <ele>182</ele>
        <time>2019-07-30T17:21:23Z</time>
      </trkpt>
      <trkpt lat="49.01353" lon="6.04175">
        <ele>182</ele>
        <time>2019-07-30T17:21:37Z</time>
      </trkpt>
      <trkpt lat="49.01267" lon="6.04062">
        <ele>179</ele>
        <time>2019-07-30T17:21:51Z</time>
      </trkpt>
      <trkpt lat="49.0119" lon="6.03968">
        <ele>176</ele>
        <time>2019-07-30T17:22:04Z</time>
      </trkpt>
      <trkpt lat="49.01178" lon="6.03942">
        <ele>175</ele>
        <time>2019-07-30T17:22:08Z</time>
      </trkpt>
      <trkpt lat="49.01126" lon="6.03871">
        <ele>174</ele>
        <time>2019-07-30T17:22:22Z</time>
      </trkpt>
      <trkpt lat="49.01078" lon="6.03786">
        <ele>174</ele>
        <time>2019-07-30T17:22:37Z</time>
      </trkpt>
      <trkpt lat="49.01048" lon="6.0369">
        <ele>174</ele>
        <time>2019-07-30T17:22:50Z</time>
      </trkpt>
      <trkpt lat="49.01046" lon="6.03683">
        <ele>174</ele>
        <time>2019-07-30T17:22:51Z</time>
      </trkpt>
      <trkpt lat="49.01041" lon="6.03653">
        <ele>174</ele>
        <time>2019-07-30T17:22:55Z</time>
      </trkpt>
      <trkpt lat="49.01038" lon="6.0364">
        <ele>174</ele>
        <time>2019-07-30T17:22:57Z</time>
      </trkpt>
      <trkpt lat="49.01039" lon="6.03611">
        <ele>174</ele>
        <time>2019-07-30T17:23:01Z</time>
      </trkpt>
      <trkpt lat="49.01038" lon="6.03563">
        <ele>175</ele>
        <time>2019-07-30T17:23:07Z</time>
      </trkpt>
      <trkpt lat="49.01039" lon="6.03513">
        <ele>175</ele>
        <time>2019-07-30T17:23:14Z</time>
      </trkpt>
      <trkpt lat="49.01064" lon="6.03372">
        <ele>176</ele>
        <time>2019-07-30T17:23:32Z</time>
      </trkpt>
      <trkpt lat="49.01065" lon="6.03365">
        <ele>176</ele>
        <time>2019-07-30T17:23:33Z</time>
      </trkpt>
      <trkpt lat="49.01081" lon="6.03261">
        <ele>179</ele>
        <time>2019-07-30T17:23:50Z</time>
      </trkpt>
      <trkpt lat="49.01096" lon="6.0318">
        <ele>186</ele>
        <time>2019-07-30T17:24:05Z</time>
      </trkpt>
      <trkpt lat="49.0111" lon="6.03093">
        <ele>189</ele>
        <time>2019-07-30T17:24:21Z</time>
      </trkpt>
      <trkpt lat="49.01131" lon="6.03013">
        <ele>191</ele>
        <time>2019-07-30T17:24:36Z</time>
      </trkpt>
      <trkpt lat="49.01166" lon="6.02941">
        <ele>193</ele>
        <time>2019-07-30T17:24:51Z</time>
      </trkpt>
      <trkpt lat="49.01194" lon="6.02859">
        <ele>202</ele>
        <time>2019-07-30T17:25:07Z</time>
      </trkpt>
      <trkpt lat="49.01217" lon="6.02792">
        <ele>201</ele>
        <time>2019-07-30T17:25:19Z</time>
      </trkpt>
      <trkpt lat="49.01245" lon="6.02695">
        <ele>196</ele>
        <time>2019-07-30T17:25:36Z</time>
      </trkpt>
      <trkpt lat="49.01278" lon="6.02591">
        <ele>199</ele>
        <time>2019-07-30T17:25:50Z</time>
      </trkpt>
      <trkpt lat="49.01297" lon="6.02525">
        <ele>194</ele>
        <time>2019-07-30T17:25:57Z</time>
      </trkpt>
      <trkpt lat="49.01335" lon="6.0246">
        <ele>195</ele>
        <time>2019-07-30T17:26:05Z</time>
      </trkpt>
      <trkpt lat="49.0139" lon="6.02317">
        <ele>185</ele>
        <time>2019-07-30T17:26:19Z</time>
      </trkpt>
      <trkpt lat="49.01438" lon="6.02176">
        <ele>184</ele>
        <time>2019-07-30T17:26:33Z</time>
      </trkpt>
      <trkpt lat="49.01498" lon="6.02074">
        <ele>183</ele>
        <time>2019-07-30T17:26:47Z</time>
      </trkpt>
      <trkpt lat="49.01554" lon="6.01951">
        <ele>184</ele>
        <time>2019-07-30T17:27:03Z</time>
      </trkpt>
      <trkpt lat="49.01575" lon="6.01822">
        <ele>185</ele>
        <time>2019-07-30T17:27:17Z</time>
      </trkpt>
      <trkpt lat="49.0158" lon="6.01803">
        <ele>183</ele>
        <time>2019-07-30T17:27:19Z</time>
      </trkpt>
      <trkpt lat="49.01591" lon="6.01776">
        <ele>185</ele>
        <time>2019-07-30T17:27:22Z</time>
      </trkpt>
      <trkpt lat="49.01657" lon="6.01653">
        <ele>183</ele>
        <time>2019-07-30T17:27:38Z</time>
      </trkpt>
      <trkpt lat="49.01688" lon="6.01574">
        <ele>190</ele>
        <time>2019-07-30T17:27:47Z</time>
      </trkpt>
      <trkpt lat="49.01719" lon="6.0149">
        <ele>191</ele>
        <time>2019-07-30T17:27:59Z</time>
      </trkpt>
      <trkpt lat="49.01728" lon="6.01437">
        <ele>189</ele>
        <time>2019-07-30T17:28:06Z</time>
      </trkpt>
      <trkpt lat="49.01747" lon="6.01285">
        <ele>185</ele>
        <time>2019-07-30T17:28:24Z</time>
      </trkpt>
      <trkpt lat="49.01756" lon="6.0114">
        <ele>192</ele>
        <time>2019-07-30T17:28:41Z</time>
      </trkpt>
      <trkpt lat="49.01756" lon="6.01131">
        <ele>192</ele>
        <time>2019-07-30T17:28:42Z</time>
      </trkpt>
      <trkpt lat="49.01742" lon="6.00937">
        <ele>184</ele>
        <time>2019-07-30T17:29:04Z</time>
      </trkpt>
      <trkpt lat="49.01716" lon="6.00782">
        <ele>184</ele>
        <time>2019-07-30T17:29:21Z</time>
      </trkpt>
      <trkpt lat="49.01683" lon="6.0065">
        <ele>185</ele>
        <time>2019-07-30T17:29:36Z</time>
      </trkpt>
      <trkpt lat="49.0166" lon="6.00512">
        <ele>187</ele>
        <time>2019-07-30T17:29:52Z</time>
      </trkpt>
      <trkpt lat="49.01659" lon="6.00496">
        <ele>188</ele>
        <time>2019-07-30T17:29:54Z</time>
      </trkpt>
      <trkpt lat="49.01633" lon="6.00343">
        <ele>189</ele>
        <time>2019-07-30T17:30:16Z</time>
      </trkpt>
      <trkpt lat="49.01613" lon="6.00223">
        <ele>190</ele>
        <time>2019-07-30T17:30:33Z</time>
      </trkpt>
      <trkpt lat="49.01588" lon="6.00105">
        <ele>188</ele>
        <time>2019-07-30T17:30:45Z</time>
      </trkpt>
      <trkpt lat="49.01546" lon="5.99936">
        <ele>185</ele>
        <time>2019-07-30T17:31:01Z</time>
      </trkpt>
      <trkpt lat="49.01501" lon="5.9973">
        <ele>186</ele>
        <time>2019-07-30T17:31:24Z</time>
      </trkpt>
      <trkpt lat="49.0147" lon="5.99611">
        <ele>185</ele>
        <time>2019-07-30T17:31:39Z</time>
      </trkpt>
      <trkpt lat="49.01444" lon="5.99475">
        <ele>187</ele>
        <time>2019-07-30T17:31:56Z</time>
      </trkpt>
      <trkpt lat="49.01417" lon="5.99333">
        <ele>183</ele>
        <time>2019-07-30T17:32:12Z</time>
      </trkpt>
      <trkpt lat="49.01396" lon="5.99167">
        <ele>184</ele>
        <time>2019-07-30T17:32:30Z</time>
      </trkpt>
      <trkpt lat="49.01398" lon="5.99112">
        <ele>184</ele>
        <time>2019-07-30T17:32:36Z</time>
      </trkpt>
      <trkpt lat="49.01408" lon="5.99075">
        <ele>184</ele>
        <time>2019-07-30T17:32:41Z</time>
      </trkpt>
      <trkpt lat="49.01427" lon="5.99051">
        <ele>187</ele>
        <time>2019-07-30T17:32:46Z</time>
      </trkpt>
      <trkpt lat="49.01436" lon="5.99046">
        <ele>187</ele>
        <time>2019-07-30T17:32:48Z</time>
      </trkpt>
      <trkpt lat="49.01454" lon="5.9904">
        <ele>188</ele>
        <time>2019-07-30T17:32:52Z</time>
      </trkpt>
      <trkpt lat="49.01472" lon="5.99019">
        <ele>188</ele>
        <time>2019-07-30T17:32:57Z</time>
      </trkpt>
      <trkpt lat="49.01508" lon="5.98947">
        <ele>191</ele>
        <time>2019-07-30T17:33:08Z</time>
      </trkpt>
      <trkpt lat="49.01539" lon="5.9882">
        <ele>188</ele>
        <time>2019-07-30T17:33:24Z</time>
      </trkpt>
      <trkpt lat="49.01558" lon="5.98691">
        <ele>187</ele>
        <time>2019-07-30T17:33:38Z</time>
      </trkpt>
      <trkpt lat="49.01576" lon="5.98525">
        <ele>189</ele>
        <time>2019-07-30T17:33:56Z</time>
      </trkpt>
      <trkpt lat="49.01593" lon="5.98378">
        <ele>189</ele>
        <time>2019-07-30T17:34:12Z</time>
      </trkpt>
      <trkpt lat="49.01606" lon="5.98195">
        <ele>188</ele>
        <time>2019-07-30T17:34:31Z</time>
      </trkpt>
      <trkpt lat="49.01616" lon="5.98031">
        <ele>188</ele>
        <time>2019-07-30T17:34:48Z</time>
      </trkpt>
      <trkpt lat="49.01604" lon="5.97869">
        <ele>190</ele>
        <time>2019-07-30T17:35:06Z</time>
      </trkpt>
      <trkpt lat="49.0158" lon="5.97741">
        <ele>187</ele>
        <time>2019-07-30T17:35:22Z</time>
      </trkpt>
      <trkpt lat="49.01558" lon="5.97595">
        <ele>186</ele>
        <time>2019-07-30T17:35:40Z</time>
      </trkpt>
      <trkpt lat="49.01541" lon="5.97435">
        <ele>184</ele>
        <time>2019-07-30T17:35:58Z</time>
      </trkpt>
      <trkpt lat="49.01515" lon="5.97299">
        <ele>186</ele>
        <time>2019-07-30T17:36:14Z</time>
      </trkpt>
      <trkpt lat="49.01498" lon="5.97209">
        <ele>186</ele>
        <time>2019-07-30T17:36:25Z</time>
      </trkpt>
      <trkpt lat="49.01496" lon="5.9709">
        <ele>186</ele>
        <time>2019-07-30T17:36:40Z</time>
      </trkpt>
      <trkpt lat="49.01504" lon="5.9701">
        <ele>186</ele>
        <time>2019-07-30T17:36:50Z</time>
      </trkpt>
      <trkpt lat="49.01507" lon="5.96995">
        <ele>186</ele>
        <time>2019-07-30T17:36:52Z</time>
      </trkpt>
      <trkpt lat="49.01512" lon="5.96981">
        <ele>186</ele>
        <time>2019-07-30T17:36:54Z</time>
      </trkpt>
      <trkpt lat="49.01526" lon="5.96948">
        <ele>186</ele>
        <time>2019-07-30T17:36:59Z</time>
      </trkpt>
      <trkpt lat="49.01566" lon="5.96904">
        <ele>187</ele>
        <time>2019-07-30T17:37:09Z</time>
      </trkpt>
      <trkpt lat="49.01579" lon="5.9687">
        <ele>187</ele>
        <time>2019-07-30T17:37:14Z</time>
      </trkpt>
      <trkpt lat="49.01595" lon="5.96728">
        <ele>189</ele>
        <time>2019-07-30T17:37:31Z</time>
      </trkpt>
      <trkpt lat="49.0158" lon="5.96581">
        <ele>187</ele>
        <time>2019-07-30T17:37:49Z</time>
      </trkpt>
      <trkpt lat="49.01542" lon="5.96462">
        <ele>188</ele>
        <time>2019-07-30T17:38:05Z</time>
      </trkpt>
      <trkpt lat="49.01491" lon="5.96335">
        <ele>191</ele>
        <time>2019-07-30T17:38:23Z</time>
      </trkpt>
      <trkpt lat="49.0145" lon="5.96277">
        <ele>192</ele>
        <time>2019-07-30T17:38:34Z</time>
      </trkpt>
      <trkpt lat="49.01355" lon="5.96205">
        <ele>190</ele>
        <time>2019-07-30T17:38:53Z</time>
      </trkpt>
      <trkpt lat="49.01267" lon="5.96146">
        <ele>190</ele>
        <time>2019-07-30T17:39:10Z</time>
      </trkpt>
      <trkpt lat="49.01195" lon="5.96117">
        <ele>191</ele>
        <time>2019-07-30T17:39:22Z</time>
      </trkpt>
      <trkpt lat="49.01179" lon="5.96109">
        <ele>190</ele>
        <time>2019-07-30T17:39:25Z</time>
      </trkpt>
      <trkpt lat="49.01164" lon="5.96096">
        <ele>190</ele>
        <time>2019-07-30T17:39:28Z</time>
      </trkpt>
      <trkpt lat="49.01091" lon="5.95995">
        <ele>190</ele>
        <time>2019-07-30T17:39:46Z</time>
      </trkpt>
      <trkpt lat="49.01014" lon="5.95921">
        <ele>189</ele>
        <time>2019-07-30T17:40:02Z</time>
      </trkpt>
      <trkpt lat="49.00946" lon="5.95847">
        <ele>187</ele>
        <time>2019-07-30T17:40:17Z</time>
      </trkpt>
      <trkpt lat="49.00894" lon="5.95735">
        <ele>188</ele>
        <time>2019-07-30T17:40:33Z</time>
      </trkpt>
      <trkpt lat="49.00863" lon="5.95644">
        <ele>190</ele>
        <time>2019-07-30T17:40:45Z</time>
      </trkpt>
      <trkpt lat="49.00819" lon="5.9552">
        <ele>192</ele>
        <time>2019-07-30T17:41:03Z</time>
      </trkpt>
      <trkpt lat="49.00777" lon="5.95403">
        <ele>196</ele>
        <time>2019-07-30T17:41:23Z</time>
      </trkpt>
      <trkpt lat="49.00735" lon="5.95292">
        <ele>194</ele>
        <time>2019-07-30T17:41:41Z</time>
      </trkpt>
      <trkpt lat="49.007" lon="5.95195">
        <ele>196</ele>
        <time>2019-07-30T17:41:56Z</time>
      </trkpt>
      <trkpt lat="49.00677" lon="5.95131">
        <ele>197</ele>
        <time>2019-07-30T17:42:07Z</time>
      </trkpt>
      <trkpt lat="49.00634" lon="5.9502">
        <ele>195</ele>
        <time>2019-07-30T17:42:22Z</time>
      </trkpt>
      <trkpt lat="49.00582" lon="5.94871">
        <ele>193</ele>
        <time>2019-07-30T17:42:41Z</time>
      </trkpt>
      <trkpt lat="49.00546" lon="5.94743">
        <ele>194</ele>
        <time>2019-07-30T17:42:56Z</time>
      </trkpt>
      <trkpt lat="49.00544" lon="5.94705">
        <ele>194</ele>
        <time>2019-07-30T17:43:00Z</time>
      </trkpt>
      <trkpt lat="49.00563" lon="5.94528">
        <ele>193</ele>
        <time>2019-07-30T17:43:18Z</time>
      </trkpt>
      <trkpt lat="49.00584" lon="5.9435">
        <ele>195</ele>
        <time>2019-07-30T17:43:35Z</time>
      </trkpt>
      <trkpt lat="49.00588" lon="5.94319">
        <ele>194</ele>
        <time>2019-07-30T17:43:38Z</time>
      </trkpt>
      <trkpt lat="49.00593" lon="5.94173">
        <ele>193</ele>
        <time>2019-07-30T17:43:53Z</time>
      </trkpt>
      <trkpt lat="49.00593" lon="5.94154">
        <ele>195</ele>
        <time>2019-07-30T17:43:55Z</time>
      </trkpt>
      <trkpt lat="49.00588" lon="5.94052">
        <ele>198</ele>
        <time>2019-07-30T17:44:07Z</time>
      </trkpt>
      <trkpt lat="49.00583" lon="5.93981">
        <ele>194</ele>
        <time>2019-07-30T17:44:17Z</time>
      </trkpt>
      <trkpt lat="49.00584" lon="5.93966">
        <ele>200</ele>
        <time>2019-07-30T17:44:19Z</time>
      </trkpt>
      <trkpt lat="49.00604" lon="5.93891">
        <ele>200</ele>
        <time>2019-07-30T17:44:31Z</time>
      </trkpt>
      <trkpt lat="49.00645" lon="5.93761">
        <ele>199</ele>
        <time>2019-07-30T17:44:53Z</time>
      </trkpt>
      <trkpt lat="49.00679" lon="5.93678">
        <ele>199</ele>
        <time>2019-07-30T17:45:08Z</time>
      </trkpt>
      <trkpt lat="49.00737" lon="5.93585">
        <ele>202</ele>
        <time>2019-07-30T17:45:27Z</time>
      </trkpt>
      <trkpt lat="49.00787" lon="5.93508">
        <ele>207</ele>
        <time>2019-07-30T17:45:44Z</time>
      </trkpt>
      <trkpt lat="49.00834" lon="5.93433">
        <ele>208</ele>
        <time>2019-07-30T17:46:01Z</time>
      </trkpt>
      <trkpt lat="49.0087" lon="5.93374">
        <ele>203</ele>
        <time>2019-07-30T17:46:14Z</time>
      </trkpt>
      <trkpt lat="49.00934" lon="5.93295">
        <ele>202</ele>
        <time>2019-07-30T17:46:28Z</time>
      </trkpt>
      <trkpt lat="49.01011" lon="5.93235">
        <ele>202</ele>
        <time>2019-07-30T17:46:42Z</time>
      </trkpt>
      <trkpt lat="49.01077" lon="5.93184">
        <ele>202</ele>
        <time>2019-07-30T17:46:54Z</time>
      </trkpt>
      <trkpt lat="49.01097" lon="5.93162">
        <ele>204</ele>
        <time>2019-07-30T17:46:58Z</time>
      </trkpt>
      <trkpt lat="49.01118" lon="5.93127">
        <ele>206</ele>
        <time>2019-07-30T17:47:03Z</time>
      </trkpt>
      <trkpt lat="49.01127" lon="5.93105">
        <ele>206</ele>
        <time>2019-07-30T17:47:06Z</time>
      </trkpt>
      <trkpt lat="49.0115" lon="5.92969">
        <ele>206</ele>
        <time>2019-07-30T17:47:22Z</time>
      </trkpt>
      <trkpt lat="49.0116" lon="5.92899">
        <ele>206</ele>
        <time>2019-07-30T17:47:31Z</time>
      </trkpt>
      <trkpt lat="49.01162" lon="5.92886">
        <ele>206</ele>
        <time>2019-07-30T17:47:33Z</time>
      </trkpt>
      <trkpt lat="49.01173" lon="5.9285">
        <ele>207</ele>
        <time>2019-07-30T17:47:39Z</time>
      </trkpt>
      <trkpt lat="49.01198" lon="5.92795">
        <ele>206</ele>
        <time>2019-07-30T17:47:50Z</time>
      </trkpt>
      <trkpt lat="49.01211" lon="5.92774">
        <ele>206</ele>
        <time>2019-07-30T17:47:54Z</time>
      </trkpt>
      <trkpt lat="49.01241" lon="5.92739">
        <ele>206</ele>
        <time>2019-07-30T17:48:01Z</time>
      </trkpt>
      <trkpt lat="49.01284" lon="5.92713">
        <ele>208</ele>
        <time>2019-07-30T17:48:09Z</time>
      </trkpt>
      <trkpt lat="49.01371" lon="5.92696">
        <ele>212</ele>
        <time>2019-07-30T17:48:24Z</time>
      </trkpt>
      <trkpt lat="49.01433" lon="5.92687">
        <ele>214</ele>
        <time>2019-07-30T17:48:36Z</time>
      </trkpt>
      <trkpt lat="49.01458" lon="5.92683">
        <ele>214</ele>
        <time>2019-07-30T17:48:42Z</time>
      </trkpt>
      <trkpt lat="49.01469" lon="5.9268">
        <ele>215</ele>
        <time>2019-07-30T17:48:45Z</time>
      </trkpt>
      <trkpt lat="49.01478" lon="5.92678">
        <ele>215</ele>
        <time>2019-07-30T17:48:47Z</time>
      </trkpt>
      <trkpt lat="49.01502" lon="5.92667">
        <ele>216</ele>
        <time>2019-07-30T17:48:53Z</time>
      </trkpt>
      <trkpt lat="49.0155" lon="5.92605">
        <ele>219</ele>
        <time>2019-07-30T17:49:08Z</time>
      </trkpt>
      <trkpt lat="49.0157" lon="5.92517">
        <ele>224</ele>
        <time>2019-07-30T17:49:22Z</time>
      </trkpt>
      <trkpt lat="49.01574" lon="5.92399">
        <ele>231</ele>
        <time>2019-07-30T17:49:38Z</time>
      </trkpt>
      <trkpt lat="49.01581" lon="5.92341">
        <ele>229</ele>
        <time>2019-07-30T17:49:46Z</time>
      </trkpt>
      <trkpt lat="49.01614" lon="5.92249">
        <ele>227</ele>
        <time>2019-07-30T17:50:00Z</time>
      </trkpt>
      <trkpt lat="49.0162" lon="5.92237">
        <ele>227</ele>
        <time>2019-07-30T17:50:02Z</time>
      </trkpt>
      <trkpt lat="49.01654" lon="5.92185">
        <ele>224</ele>
        <time>2019-07-30T17:50:11Z</time>
      </trkpt>
      <trkpt lat="49.0167" lon="5.92166">
        <ele>221</ele>
        <time>2019-07-30T17:50:15Z</time>
      </trkpt>
      <trkpt lat="49.01746" lon="5.92108">
        <ele>225</ele>
        <time>2019-07-30T17:50:32Z</time>
      </trkpt>
      <trkpt lat="49.01782" lon="5.9208">
        <ele>229</ele>
        <time>2019-07-30T17:50:41Z</time>
      </trkpt>
      <trkpt lat="49.01792" lon="5.92068">
        <ele>228</ele>
        <time>2019-07-30T17:50:44Z</time>
      </trkpt>
      <trkpt lat="49.01823" lon="5.91996">
        <ele>231</ele>
        <time>2019-07-30T17:50:58Z</time>
      </trkpt>
      <trkpt lat="49.01829" lon="5.91936">
        <ele>233</ele>
        <time>2019-07-30T17:51:08Z</time>
      </trkpt>
      <trkpt lat="49.01821" lon="5.91835">
        <ele>235</ele>
        <time>2019-07-30T17:51:25Z</time>
      </trkpt>
      <trkpt lat="49.01812" lon="5.91754">
        <ele>241</ele>
        <time>2019-07-30T17:51:39Z</time>
      </trkpt>
      <trkpt lat="49.01804" lon="5.91673">
        <ele>246</ele>
        <time>2019-07-30T17:51:53Z</time>
      </trkpt>
      <trkpt lat="49.01801" lon="5.9161">
        <ele>250</ele>
        <time>2019-07-30T17:52:04Z</time>
      </trkpt>
      <trkpt lat="49.01812" lon="5.91551">
        <ele>254</ele>
        <time>2019-07-30T17:52:16Z</time>
      </trkpt>
      <trkpt lat="49.01832" lon="5.91506">
        <ele>250</ele>
        <time>2019-07-30T17:52:24Z</time>
      </trkpt>
      <trkpt lat="49.01863" lon="5.91457">
        <ele>245</ele>
        <time>2019-07-30T17:52:34Z</time>
      </trkpt>
      <trkpt lat="49.01908" lon="5.91386">
        <ele>252</ele>
        <time>2019-07-30T17:52:49Z</time>
      </trkpt>
      <trkpt lat="49.01953" lon="5.91326">
        <ele>254</ele>
        <time>2019-07-30T17:53:04Z</time>
      </trkpt>
      <trkpt lat="49.02005" lon="5.91287">
        <ele>247</ele>
        <time>2019-07-30T17:53:19Z</time>
      </trkpt>
      <trkpt lat="49.0205" lon="5.91276">
        <ele>246</ele>
        <time>2019-07-30T17:53:32Z</time>
      </trkpt>
      <trkpt lat="49.02105" lon="5.91269">
        <ele>241</ele>
        <time>2019-07-30T17:53:45Z</time>
      </trkpt>
      <trkpt lat="49.02168" lon="5.91244">
        <ele>238</ele>
        <time>2019-07-30T17:54:01Z</time>
      </trkpt>
      <trkpt lat="49.02219" lon="5.91192">
        <ele>240</ele>
        <time>2019-07-30T17:54:18Z</time>
      </trkpt>
      <trkpt lat="49.0225" lon="5.91135">
        <ele>241</ele>
        <time>2019-07-30T17:54:31Z</time>
      </trkpt>
      <trkpt lat="49.02296" lon="5.91029">
        <ele>241</ele>
        <time>2019-07-30T17:54:51Z</time>
      </trkpt>
      <trkpt lat="49.02339" lon="5.90928">
        <ele>242</ele>
        <time>2019-07-30T17:55:09Z</time>
      </trkpt>
      <trkpt lat="49.02381" lon="5.90832">
        <ele>244</ele>
        <time>2019-07-30T17:55:25Z</time>
      </trkpt>
      <trkpt lat="49.02407" lon="5.90777">
        <ele>245</ele>
        <time>2019-07-30T17:55:34Z</time>
      </trkpt>
      <trkpt lat="49.02421" lon="5.90758">
        <ele>246</ele>
        <time>2019-07-30T17:55:38Z</time>
      </trkpt>
      <trkpt lat="49.02429" lon="5.90751">
        <ele>246</ele>
        <time>2019-07-30T17:55:40Z</time>
      </trkpt>
      <trkpt lat="49.02453" lon="5.9074">
        <ele>247</ele>
        <time>2019-07-30T17:55:45Z</time>
      </trkpt>
      <trkpt lat="49.02472" lon="5.90738">
        <ele>247</ele>
        <time>2019-07-30T17:55:49Z</time>
      </trkpt>
      <trkpt lat="49.02486" lon="5.90739">
        <ele>247</ele>
        <time>2019-07-30T17:55:52Z</time>
      </trkpt>
      <trkpt lat="49.02559" lon="5.90763">
        <ele>249</ele>
        <time>2019-07-30T17:56:09Z</time>
      </trkpt>
      <trkpt lat="49.02625" lon="5.90785">
        <ele>252</ele>
        <time>2019-07-30T17:56:25Z</time>
      </trkpt>
      <trkpt lat="49.02684" lon="5.90804">
        <ele>255</ele>
        <time>2019-07-30T17:56:39Z</time>
      </trkpt>
      <trkpt lat="49.02769" lon="5.90823">
        <ele>257</ele>
        <time>2019-07-30T17:57:00Z</time>
      </trkpt>
      <trkpt lat="49.02781" lon="5.90819">
        <ele>257</ele>
        <time>2019-07-30T17:57:03Z</time>
      </trkpt>
      <trkpt lat="49.02819" lon="5.90785">
        <ele>257</ele>
        <time>2019-07-30T17:57:17Z</time>
      </trkpt>
      <trkpt lat="49.02832" lon="5.90762">
        <ele>256</ele>
        <time>2019-07-30T17:57:22Z</time>
      </trkpt>
      <trkpt lat="49.02864" lon="5.9065">
        <ele>254</ele>
        <time>2019-07-30T17:57:38Z</time>
      </trkpt>
      <trkpt lat="49.0289" lon="5.90542">
        <ele>255</ele>
        <time>2019-07-30T17:57:52Z</time>
      </trkpt>
      <trkpt lat="49.02899" lon="5.90518">
        <ele>256</ele>
        <time>2019-07-30T17:57:55Z</time>
      </trkpt>
      <trkpt lat="49.02924" lon="5.9049">
        <ele>255</ele>
        <time>2019-07-30T17:58:00Z</time>
      </trkpt>
      <trkpt lat="49.03024" lon="5.90448">
        <ele>251</ele>
        <time>2019-07-30T17:58:14Z</time>
      </trkpt>
      <trkpt lat="49.0306" lon="5.90374">
        <ele>251</ele>
        <time>2019-07-30T17:58:22Z</time>
      </trkpt>
      <trkpt lat="49.0306" lon="5.90362">
        <ele>251</ele>
        <time>2019-07-30T17:58:23Z</time>
      </trkpt>
      <trkpt lat="49.03057" lon="5.90302">
        <ele>251</ele>
        <time>2019-07-30T17:58:28Z</time>
      </trkpt>
      <trkpt lat="49.03085" lon="5.90232">
        <ele>251</ele>
        <time>2019-07-30T17:58:35Z</time>
      </trkpt>
      <trkpt lat="49.03118" lon="5.90237">
        <ele>252</ele>
        <time>2019-07-30T17:58:39Z</time>
      </trkpt>
      <trkpt lat="49.03161" lon="5.90278">
        <ele>253</ele>
        <time>2019-07-30T17:58:46Z</time>
      </trkpt>
      <trkpt lat="49.03179" lon="5.90291">
        <ele>253</ele>
        <time>2019-07-30T17:58:49Z</time>
      </trkpt>
      <trkpt lat="49.0322" lon="5.90293">
        <ele>252</ele>
        <time>2019-07-30T17:58:56Z</time>
      </trkpt>
      <trkpt lat="49.03258" lon="5.90244">
        <ele>250</ele>
        <time>2019-07-30T17:59:04Z</time>
      </trkpt>
      <trkpt lat="49.03318" lon="5.9006">
        <ele>249</ele>
        <time>2019-07-30T17:59:24Z</time>
      </trkpt>
      <trkpt lat="49.0337" lon="5.90023">
        <ele>247</ele>
        <time>2019-07-30T17:59:32Z</time>
      </trkpt>
      <trkpt lat="49.03384" lon="5.90029">
        <ele>247</ele>
        <time>2019-07-30T17:59:34Z</time>
      </trkpt>
      <trkpt lat="49.03466" lon="5.90093">
        <ele>246</ele>
        <time>2019-07-30T17:59:47Z</time>
      </trkpt>
      <trkpt lat="49.03499" lon="5.90098">
        <ele>247</ele>
        <time>2019-07-30T17:59:52Z</time>
      </trkpt>
      <trkpt lat="49.03539" lon="5.90085">
        <ele>247</ele>
        <time>2019-07-30T17:59:58Z</time>
      </trkpt>
      <trkpt lat="49.0358" lon="5.90098">
        <ele>248</ele>
        <time>2019-07-30T18:00:04Z</time>
      </trkpt>
      <trkpt lat="49.03658" lon="5.90176">
        <ele>245</ele>
        <time>2019-07-30T18:00:17Z</time>
      </trkpt>
      <trkpt lat="49.03682" lon="5.90224">
        <ele>246</ele>
        <time>2019-07-30T18:00:23Z</time>
      </trkpt>
      <trkpt lat="49.03699" lon="5.90249">
        <ele>245</ele>
        <time>2019-07-30T18:00:27Z</time>
      </trkpt>
      <trkpt lat="49.03709" lon="5.90258">
        <ele>243</ele>
        <time>2019-07-30T18:00:29Z</time>
      </trkpt>
      <trkpt lat="49.03732" lon="5.90266">
        <ele>244</ele>
        <time>2019-07-30T18:00:33Z</time>
      </trkpt>
      <trkpt lat="49.03772" lon="5.90267">
        <ele>246</ele>
        <time>2019-07-30T18:00:39Z</time>
      </trkpt>
      <trkpt lat="49.03795" lon="5.90287">
        <ele>246</ele>
        <time>2019-07-30T18:00:43Z</time>
      </trkpt>
      <trkpt lat="49.0385" lon="5.90394">
        <ele>246</ele>
        <time>2019-07-30T18:00:56Z</time>
      </trkpt>
      <trkpt lat="49.03868" lon="5.90427">
        <ele>246</ele>
        <time>2019-07-30T18:01:00Z</time>
      </trkpt>
      <trkpt lat="49.03903" lon="5.90454">
        <ele>246</ele>
        <time>2019-07-30T18:01:06Z</time>
      </trkpt>
      <trkpt lat="49.03917" lon="5.90455">
        <ele>245</ele>
        <time>2019-07-30T18:01:08Z</time>
      </trkpt>
      <trkpt lat="49.03959" lon="5.90417">
        <ele>245</ele>
        <time>2019-07-30T18:01:15Z</time>
      </trkpt>
      <trkpt lat="49.04056" lon="5.90246">
        <ele>244</ele>
        <time>2019-07-30T18:01:36Z</time>
      </trkpt>
      <trkpt lat="49.04141" lon="5.901">
        <ele>243</ele>
        <time>2019-07-30T18:01:55Z</time>
      </trkpt>
      <trkpt lat="49.04211" lon="5.90019">
        <ele>242</ele>
        <time>2019-07-30T18:02:08Z</time>
      </trkpt>
      <trkpt lat="49.04293" lon="5.89939">
        <ele>243</ele>
        <time>2019-07-30T18:02:23Z</time>
      </trkpt>
      <trkpt lat="49.04398" lon="5.89842">
        <ele>245</ele>
        <time>2019-07-30T18:02:42Z</time>
      </trkpt>
      <trkpt lat="49.04403" lon="5.89839">
        <ele>245</ele>
        <time>2019-07-30T18:02:43Z</time>
      </trkpt>
      <trkpt lat="49.04421" lon="5.89833">
        <ele>245</ele>
        <time>2019-07-30T18:02:46Z</time>
      </trkpt>
      <trkpt lat="49.04454" lon="5.8983">
        <ele>246</ele>
        <time>2019-07-30T18:02:52Z</time>
      </trkpt>
      <trkpt lat="49.04542" lon="5.89827">
        <ele>249</ele>
        <time>2019-07-30T18:03:10Z</time>
      </trkpt>
      <trkpt lat="49.04589" lon="5.89826">
        <ele>250</ele>
        <time>2019-07-30T18:03:20Z</time>
      </trkpt>
      <trkpt lat="49.04665" lon="5.89825">
        <ele>253</ele>
        <time>2019-07-30T18:03:36Z</time>
      </trkpt>
      <trkpt lat="49.0474" lon="5.89852">
        <ele>254</ele>
        <time>2019-07-30T18:03:51Z</time>
      </trkpt>
      <trkpt lat="49.0475" lon="5.89857">
        <ele>254</ele>
        <time>2019-07-30T18:03:53Z</time>
      </trkpt>
      <trkpt lat="49.04833" lon="5.89866">
        <ele>256</ele>
        <time>2019-07-30T18:04:09Z</time>
      </trkpt>
      <trkpt lat="49.04913" lon="5.89831">
        <ele>258</ele>
        <time>2019-07-30T18:04:25Z</time>
      </trkpt>
      <trkpt lat="49.04996" lon="5.89788">
        <ele>260</ele>
        <time>2019-07-30T18:04:41Z</time>
      </trkpt>
      <trkpt lat="49.05095" lon="5.89735">
        <ele>259</ele>
        <time>2019-07-30T18:05:00Z</time>
      </trkpt>
      <trkpt lat="49.05188" lon="5.89687">
        <ele>256</ele>
        <time>2019-07-30T18:05:16Z</time>
      </trkpt>
      <trkpt lat="49.05262" lon="5.89647">
        <ele>255</ele>
        <time>2019-07-30T18:05:29Z</time>
      </trkpt>
      <trkpt lat="49.0531" lon="5.89623">
        <ele>256</ele>
        <time>2019-07-30T18:05:37Z</time>
      </trkpt>
      <trkpt lat="49.05413" lon="5.8957">
        <ele>256</ele>
        <time>2019-07-30T18:05:52Z</time>
      </trkpt>
      <trkpt lat="49.05508" lon="5.89492">
        <ele>255</ele>
        <time>2019-07-30T18:06:08Z</time>
      </trkpt>
      <trkpt lat="49.05614" lon="5.89393">
        <ele>255</ele>
        <time>2019-07-30T18:06:27Z</time>
      </trkpt>
      <trkpt lat="49.05714" lon="5.89299">
        <ele>256</ele>
        <time>2019-07-30T18:06:45Z</time>
      </trkpt>
      <trkpt lat="49.05836" lon="5.89191">
        <ele>257</ele>
        <time>2019-07-30T18:07:06Z</time>
      </trkpt>
      <trkpt lat="49.05949" lon="5.89121">
        <ele>262</ele>
        <time>2019-07-30T18:07:24Z</time>
      </trkpt>
      <trkpt lat="49.06037" lon="5.89084">
        <ele>266</ele>
        <time>2019-07-30T18:07:39Z</time>
      </trkpt>
      <trkpt lat="49.06139" lon="5.89043">
        <ele>268</ele>
        <time>2019-07-30T18:07:57Z</time>
      </trkpt>
      <trkpt lat="49.06239" lon="5.89005">
        <ele>266</ele>
        <time>2019-07-30T18:08:13Z</time>
      </trkpt>
      <trkpt lat="49.06329" lon="5.88965">
        <ele>264</ele>
        <time>2019-07-30T18:08:27Z</time>
      </trkpt>
      <trkpt lat="49.06363" lon="5.88951">
        <ele>262</ele>
        <time>2019-07-30T18:08:33Z</time>
      </trkpt>
      <trkpt lat="49.06466" lon="5.88912">
        <ele>255</ele>
        <time>2019-07-30T18:08:48Z</time>
      </trkpt>
      <trkpt lat="49.06578" lon="5.88868">
        <ele>254</ele>
        <time>2019-07-30T18:09:04Z</time>
      </trkpt>
      <trkpt lat="49.06704" lon="5.88818">
        <ele>254</ele>
        <time>2019-07-30T18:09:23Z</time>
      </trkpt>
      <trkpt lat="49.06807" lon="5.88778">
        <ele>252</ele>
        <time>2019-07-30T18:09:37Z</time>
      </trkpt>
      <trkpt lat="49.06928" lon="5.8873">
        <ele>249</ele>
        <time>2019-07-30T18:09:51Z</time>
      </trkpt>
      <trkpt lat="49.07023" lon="5.88693">
        <ele>250</ele>
        <time>2019-07-30T18:10:04Z</time>
      </trkpt>
      <trkpt lat="49.07135" lon="5.88649">
        <ele>253</ele>
        <time>2019-07-30T18:10:21Z</time>
      </trkpt>
      <trkpt lat="49.07235" lon="5.8861">
        <ele>254</ele>
        <time>2019-07-30T18:10:37Z</time>
      </trkpt>
      <trkpt lat="49.07357" lon="5.88562">
        <ele>251</ele>
        <time>2019-07-30T18:10:56Z</time>
      </trkpt>
      <trkpt lat="49.07472" lon="5.88517">
        <ele>248</ele>
        <time>2019-07-30T18:11:12Z</time>
      </trkpt>
      <trkpt lat="49.07581" lon="5.88506">
        <ele>248</ele>
        <time>2019-07-30T18:11:26Z</time>
      </trkpt>
      <trkpt lat="49.07685" lon="5.88562">
        <ele>247</ele>
        <time>2019-07-30T18:11:40Z</time>
      </trkpt>
      <trkpt lat="49.077" lon="5.88574">
        <ele>247</ele>
        <time>2019-07-30T18:11:42Z</time>
      </trkpt>
      <trkpt lat="49.07802" lon="5.88665">
        <ele>246</ele>
        <time>2019-07-30T18:11:56Z</time>
      </trkpt>
      <trkpt lat="49.07941" lon="5.88786">
        <ele>241</ele>
        <time>2019-07-30T18:12:15Z</time>
      </trkpt>
      <trkpt lat="49.08068" lon="5.88897">
        <ele>241</ele>
        <time>2019-07-30T18:12:32Z</time>
      </trkpt>
      <trkpt lat="49.08166" lon="5.88984">
        <ele>243</ele>
        <time>2019-07-30T18:12:48Z</time>
      </trkpt>
      <trkpt lat="49.08271" lon="5.89077">
        <ele>240</ele>
        <time>2019-07-30T18:13:05Z</time>
      </trkpt>
      <trkpt lat="49.08388" lon="5.89158">
        <ele>238</ele>
        <time>2019-07-30T18:13:21Z</time>
      </trkpt>
      <trkpt lat="49.08521" lon="5.8923">
        <ele>237</ele>
        <time>2019-07-30T18:13:38Z</time>
      </trkpt>
      <trkpt lat="49.08658" lon="5.8927">
        <ele>236</ele>
        <time>2019-07-30T18:13:55Z</time>
      </trkpt>
      <trkpt lat="49.0876" lon="5.89268">
        <ele>237</ele>
        <time>2019-07-30T18:14:10Z</time>
      </trkpt>
      <trkpt lat="49.08861" lon="5.89264">
        <ele>237</ele>
        <time>2019-07-30T18:14:28Z</time>
      </trkpt>
      <trkpt lat="49.08969" lon="5.89261">
        <ele>236</ele>
        <time>2019-07-30T18:14:45Z</time>
      </trkpt>
      <trkpt lat="49.09106" lon="5.89256">
        <ele>236</ele>
        <time>2019-07-30T18:15:04Z</time>
      </trkpt>
      <trkpt lat="49.09238" lon="5.89256">
        <ele>234</ele>
        <time>2019-07-30T18:15:21Z</time>
      </trkpt>
      <trkpt lat="49.09326" lon="5.89202">
        <ele>234</ele>
        <time>2019-07-30T18:15:33Z</time>
      </trkpt>
      <trkpt lat="49.09423" lon="5.89107">
        <ele>236</ele>
        <time>2019-07-30T18:15:49Z</time>
      </trkpt>
      <trkpt lat="49.0952" lon="5.89017">
        <ele>237</ele>
        <time>2019-07-30T18:16:05Z</time>
      </trkpt>
      <trkpt lat="49.09608" lon="5.88937">
        <ele>239</ele>
        <time>2019-07-30T18:16:21Z</time>
      </trkpt>
      <trkpt lat="49.09707" lon="5.88863">
        <ele>238</ele>
        <time>2019-07-30T18:16:38Z</time>
      </trkpt>
      <trkpt lat="49.09777" lon="5.88817">
        <ele>237</ele>
        <time>2019-07-30T18:16:51Z</time>
      </trkpt>
      <trkpt lat="49.09819" lon="5.88792">
        <ele>237</ele>
        <time>2019-07-30T18:16:59Z</time>
      </trkpt>
      <trkpt lat="49.09853" lon="5.88771">
        <ele>236</ele>
        <time>2019-07-30T18:17:06Z</time>
      </trkpt>
      <trkpt lat="49.0987" lon="5.8878">
        <ele>236</ele>
        <time>2019-07-30T18:17:11Z</time>
      </trkpt>
      <trkpt lat="49.09901" lon="5.88908">
        <ele>236</ele>
        <time>2019-07-30T18:17:26Z</time>
      </trkpt>
      <trkpt lat="49.09928" lon="5.89029">
        <ele>238</ele>
        <time>2019-07-30T18:17:39Z</time>
      </trkpt>
      <trkpt lat="49.09919" lon="5.89138">
        <ele>239</ele>
        <time>2019-07-30T18:17:51Z</time>
      </trkpt>
      <trkpt lat="49.09897" lon="5.89289">
        <ele>240</ele>
        <time>2019-07-30T18:18:09Z</time>
      </trkpt>
      <trkpt lat="49.09879" lon="5.89424">
        <ele>238</ele>
        <time>2019-07-30T18:18:26Z</time>
      </trkpt>
      <trkpt lat="49.09865" lon="5.89531">
        <ele>235</ele>
        <time>2019-07-30T18:18:41Z</time>
      </trkpt>
      <trkpt lat="49.09842" lon="5.89697">
        <ele>233</ele>
        <time>2019-07-30T18:18:57Z</time>
      </trkpt>
      <trkpt lat="49.09822" lon="5.89848">
        <ele>236</ele>
        <time>2019-07-30T18:19:12Z</time>
      </trkpt>
      <trkpt lat="49.098" lon="5.90015">
        <ele>237</ele>
        <time>2019-07-30T18:19:31Z</time>
      </trkpt>
      <trkpt lat="49.09783" lon="5.90137">
        <ele>238</ele>
        <time>2019-07-30T18:19:46Z</time>
      </trkpt>
      <trkpt lat="49.09767" lon="5.9025">
        <ele>238</ele>
        <time>2019-07-30T18:20:01Z</time>
      </trkpt>
      <trkpt lat="49.09755" lon="5.90344">
        <ele>238</ele>
        <time>2019-07-30T18:20:16Z</time>
      </trkpt>
      <trkpt lat="49.09737" lon="5.90468">
        <ele>239</ele>
        <time>2019-07-30T18:20:31Z</time>
      </trkpt>
      <trkpt lat="49.0972" lon="5.90598">
        <ele>239</ele>
        <time>2019-07-30T18:20:46Z</time>
      </trkpt>
      <trkpt lat="49.09699" lon="5.90745">
        <ele>240</ele>
        <time>2019-07-30T18:21:03Z</time>
      </trkpt>
      <trkpt lat="49.09675" lon="5.90907">
        <ele>244</ele>
        <time>2019-07-30T18:21:22Z</time>
      </trkpt>
      <trkpt lat="49.09657" lon="5.91034">
        <ele>244</ele>
        <time>2019-07-30T18:21:38Z</time>
      </trkpt>
      <trkpt lat="49.0964" lon="5.91153">
        <ele>246</ele>
        <time>2019-07-30T18:21:54Z</time>
      </trkpt>
      <trkpt lat="49.09622" lon="5.91278">
        <ele>247</ele>
        <time>2019-07-30T18:22:11Z</time>
      </trkpt>
      <trkpt lat="49.096" lon="5.91428">
        <ele>248</ele>
        <time>2019-07-30T18:22:32Z</time>
      </trkpt>
      <trkpt lat="49.09574" lon="5.91587">
        <ele>250</ele>
        <time>2019-07-30T18:22:54Z</time>
      </trkpt>
      <trkpt lat="49.09549" lon="5.91724">
        <ele>251</ele>
        <time>2019-07-30T18:23:14Z</time>
      </trkpt>
      <trkpt lat="49.09533" lon="5.9182">
        <ele>253</ele>
        <time>2019-07-30T18:23:28Z</time>
      </trkpt>
      <trkpt lat="49.09508" lon="5.91957">
        <ele>256</ele>
        <time>2019-07-30T18:23:49Z</time>
      </trkpt>
      <trkpt lat="49.09489" lon="5.92067">
        <ele>257</ele>
        <time>2019-07-30T18:24:06Z</time>
      </trkpt>
      <trkpt lat="49.09468" lon="5.9219">
        <ele>260</ele>
        <time>2019-07-30T18:24:24Z</time>
      </trkpt>
      <trkpt lat="49.09445" lon="5.9232">
        <ele>262</ele>
        <time>2019-07-30T18:24:43Z</time>
      </trkpt>
      <trkpt lat="49.09421" lon="5.92462">
        <ele>265</ele>
        <time>2019-07-30T18:25:04Z</time>
      </trkpt>
      <trkpt lat="49.0942" lon="5.92468">
        <ele>265</ele>
        <time>2019-07-30T18:25:05Z</time>
      </trkpt>
      <trkpt lat="49.09417" lon="5.92496">
        <ele>267</ele>
        <time>2019-07-30T18:25:10Z</time>
      </trkpt>
      <trkpt lat="49.09415" lon="5.92514">
        <ele>267</ele>
        <time>2019-07-30T18:25:13Z</time>
      </trkpt>
      <trkpt lat="49.09405" lon="5.92647">
        <ele>268</ele>
        <time>2019-07-30T18:25:33Z</time>
      </trkpt>
      <trkpt lat="49.09395" lon="5.92784">
        <ele>269</ele>
        <time>2019-07-30T18:25:53Z</time>
      </trkpt>
      <trkpt lat="49.09382" lon="5.92941">
        <ele>271</ele>
        <time>2019-07-30T18:26:14Z</time>
      </trkpt>
      <trkpt lat="49.09371" lon="5.93086">
        <ele>273</ele>
        <time>2019-07-30T18:26:31Z</time>
      </trkpt>
      <trkpt lat="49.09359" lon="5.9324">
        <ele>274</ele>
        <time>2019-07-30T18:26:50Z</time>
      </trkpt>
      <trkpt lat="49.09349" lon="5.9337">
        <ele>276</ele>
        <time>2019-07-30T18:27:07Z</time>
      </trkpt>
      <trkpt lat="49.0934" lon="5.93501">
        <ele>278</ele>
        <time>2019-07-30T18:27:24Z</time>
      </trkpt>
      <trkpt lat="49.09329" lon="5.93638">
        <ele>283</ele>
        <time>2019-07-30T18:27:43Z</time>
      </trkpt>
      <trkpt lat="49.0932" lon="5.93756">
        <ele>283</ele>
        <time>2019-07-30T18:28:00Z</time>
      </trkpt>
      <trkpt lat="49.0931" lon="5.93883">
        <ele>286</ele>
        <time>2019-07-30T18:28:18Z</time>
      </trkpt>
      <trkpt lat="49.09306" lon="5.93944">
        <ele>287</ele>
        <time>2019-07-30T18:28:30Z</time>
      </trkpt>
      <trkpt lat="49.09302" lon="5.93992">
        <ele>287</ele>
        <time>2019-07-30T18:28:43Z</time>
      </trkpt>
      <trkpt lat="49.09298" lon="5.94045">
        <ele>288</ele>
        <time>2019-07-30T18:28:54Z</time>
      </trkpt>
      <trkpt lat="49.09296" lon="5.94071">
        <ele>288</ele>
        <time>2019-07-30T18:28:58Z</time>
      </trkpt>
      <trkpt lat="49.09295" lon="5.94085">
        <ele>287</ele>
        <time>2019-07-30T18:29:00Z</time>
      </trkpt>
      <trkpt lat="49.09301" lon="5.94215">
        <ele>285</ele>
        <time>2019-07-30T18:29:16Z</time>
      </trkpt>
      <trkpt lat="49.09308" lon="5.94374">
        <ele>280</ele>
        <time>2019-07-30T18:29:29Z</time>
      </trkpt>
      <trkpt lat="49.09317" lon="5.94561">
        <ele>279</ele>
        <time>2019-07-30T18:29:44Z</time>
      </trkpt>
      <trkpt lat="49.0932" lon="5.94623">
        <ele>279</ele>
        <time>2019-07-30T18:29:50Z</time>
      </trkpt>
      <trkpt lat="49.09328" lon="5.94769">
        <ele>277</ele>
        <time>2019-07-30T18:30:05Z</time>
      </trkpt>
      <trkpt lat="49.09344" lon="5.94933">
        <ele>278</ele>
        <time>2019-07-30T18:30:20Z</time>
      </trkpt>
      <trkpt lat="49.09359" lon="5.95089">
        <ele>278</ele>
        <time>2019-07-30T18:30:35Z</time>
      </trkpt>
      <trkpt lat="49.09376" lon="5.95245">
        <ele>279</ele>
        <time>2019-07-30T18:30:52Z</time>
      </trkpt>
      <trkpt lat="49.09387" lon="5.95352">
        <ele>280</ele>
        <time>2019-07-30T18:31:05Z</time>
      </trkpt>
      <trkpt lat="49.094" lon="5.95479">
        <ele>282</ele>
        <time>2019-07-30T18:31:22Z</time>
      </trkpt>
      <trkpt lat="49.09414" lon="5.95603">
        <ele>284</ele>
        <time>2019-07-30T18:31:39Z</time>
      </trkpt>
      <trkpt lat="49.09427" lon="5.95734">
        <ele>285</ele>
        <time>2019-07-30T18:31:58Z</time>
      </trkpt>
      <trkpt lat="49.09438" lon="5.95815">
        <ele>287</ele>
        <time>2019-07-30T18:32:10Z</time>
      </trkpt>
      <trkpt lat="49.09447" lon="5.95927">
        <ele>289</ele>
        <time>2019-07-30T18:32:28Z</time>
      </trkpt>
      <trkpt lat="49.09449" lon="5.95953">
        <ele>289</ele>
        <time>2019-07-30T18:32:32Z</time>
      </trkpt>
      <trkpt lat="49.09453" lon="5.96001">
        <ele>290</ele>
        <time>2019-07-30T18:32:39Z</time>
      </trkpt>
      <trkpt lat="49.09459" lon="5.96067">
        <ele>290</ele>
        <time>2019-07-30T18:32:51Z</time>
      </trkpt>
      <trkpt lat="49.09462" lon="5.96108">
        <ele>291</ele>
        <time>2019-07-30T18:33:02Z</time>
      </trkpt>
      <trkpt lat="49.09468" lon="5.96186">
        <ele>292</ele>
        <time>2019-07-30T18:33:15Z</time>
      </trkpt>
      <trkpt lat="49.09482" lon="5.96353">
        <ele>291</ele>
        <time>2019-07-30T18:33:35Z</time>
      </trkpt>
      <trkpt lat="49.09494" lon="5.96505">
        <ele>288</ele>
        <time>2019-07-30T18:33:50Z</time>
      </trkpt>
      <trkpt lat="49.09513" lon="5.9674">
        <ele>287</ele>
        <time>2019-07-30T18:34:10Z</time>
      </trkpt>
      <trkpt lat="49.09531" lon="5.96962">
        <ele>287</ele>
        <time>2019-07-30T18:34:28Z</time>
      </trkpt>
      <trkpt lat="49.09546" lon="5.97123">
        <ele>290</ele>
        <time>2019-07-30T18:34:43Z</time>
      </trkpt>
      <trkpt lat="49.0956" lon="5.97258">
        <ele>291</ele>
        <time>2019-07-30T18:34:59Z</time>
      </trkpt>
      <trkpt lat="49.09576" lon="5.97401">
        <ele>291</ele>
        <time>2019-07-30T18:35:17Z</time>
      </trkpt>
      <trkpt lat="49.09596" lon="5.9756">
        <ele>291</ele>
        <time>2019-07-30T18:35:32Z</time>
      </trkpt>
      <trkpt lat="49.09616" lon="5.97724">
        <ele>292</ele>
        <time>2019-07-30T18:35:50Z</time>
      </trkpt>
      <trkpt lat="49.09632" lon="5.97866">
        <ele>293</ele>
        <time>2019-07-30T18:36:07Z</time>
      </trkpt>
      <trkpt lat="49.09654" lon="5.98051">
        <ele>293</ele>
        <time>2019-07-30T18:36:26Z</time>
      </trkpt>
      <trkpt lat="49.09676" lon="5.98236">
        <ele>297</ele>
        <time>2019-07-30T18:36:45Z</time>
      </trkpt>
      <trkpt lat="49.09685" lon="5.98317">
        <ele>296</ele>
        <time>2019-07-30T18:36:55Z</time>
      </trkpt>
      <trkpt lat="49.09697" lon="5.98431">
        <ele>295</ele>
        <time>2019-07-30T18:37:10Z</time>
      </trkpt>
      <trkpt lat="49.09715" lon="5.98608">
        <ele>292</ele>
        <time>2019-07-30T18:37:27Z</time>
      </trkpt>
      <trkpt lat="49.09728" lon="5.98772">
        <ele>290</ele>
        <time>2019-07-30T18:37:41Z</time>
      </trkpt>
      <trkpt lat="49.09735" lon="5.9889">
        <ele>290</ele>
        <time>2019-07-30T18:37:51Z</time>
      </trkpt>
      <trkpt lat="49.09751" lon="5.98936">
        <ele>289</ele>
        <time>2019-07-30T18:37:56Z</time>
      </trkpt>
      <trkpt lat="49.09762" lon="5.98961">
        <ele>289</ele>
        <time>2019-07-30T18:37:59Z</time>
      </trkpt>
      <trkpt lat="49.09774" lon="5.98984">
        <ele>289</ele>
        <time>2019-07-30T18:38:02Z</time>
      </trkpt>
      <trkpt lat="49.0981" lon="5.99059">
        <ele>290</ele>
        <time>2019-07-30T18:38:11Z</time>
      </trkpt>
      <trkpt lat="49.09841" lon="5.99176">
        <ele>292</ele>
        <time>2019-07-30T18:38:24Z</time>
      </trkpt>
      <trkpt lat="49.09872" lon="5.99305">
        <ele>294</ele>
        <time>2019-07-30T18:38:41Z</time>
      </trkpt>
      <trkpt lat="49.09877" lon="5.99327">
        <ele>294</ele>
        <time>2019-07-30T18:38:44Z</time>
      </trkpt>
      <trkpt lat="49.09885" lon="5.99355">
        <ele>295</ele>
        <time>2019-07-30T18:38:48Z</time>
      </trkpt>
      <trkpt lat="49.09903" lon="5.99416">
        <ele>296</ele>
        <time>2019-07-30T18:38:56Z</time>
      </trkpt>
      <trkpt lat="49.09948" lon="5.99532">
        <ele>298</ele>
        <time>2019-07-30T18:39:13Z</time>
      </trkpt>
      <trkpt lat="49.10006" lon="5.99664">
        <ele>299</ele>
        <time>2019-07-30T18:39:32Z</time>
      </trkpt>
      <trkpt lat="49.10058" lon="5.99782">
        <ele>299</ele>
        <time>2019-07-30T18:39:49Z</time>
      </trkpt>
      <trkpt lat="49.10105" lon="5.99885">
        <ele>299</ele>
        <time>2019-07-30T18:40:04Z</time>
      </trkpt>
      <trkpt lat="49.10171" lon="6.00032">
        <ele>298</ele>
        <time>2019-07-30T18:40:23Z</time>
      </trkpt>
      <trkpt lat="49.10229" lon="6.00163">
        <ele>296</ele>
        <time>2019-07-30T18:40:38Z</time>
      </trkpt>
      <trkpt lat="49.10297" lon="6.00316">
        <ele>289</ele>
        <time>2019-07-30T18:40:50Z</time>
      </trkpt>
      <trkpt lat="49.10412" lon="6.00573">
        <ele>277</ele>
        <time>2019-07-30T18:41:06Z</time>
      </trkpt>
      <trkpt lat="49.10525" lon="6.00825">
        <ele>268</ele>
        <time>2019-07-30T18:41:23Z</time>
      </trkpt>
      <trkpt lat="49.10584" lon="6.00961">
        <ele>273</ele>
        <time>2019-07-30T18:41:35Z</time>
      </trkpt>
      <trkpt lat="49.1059" lon="6.00977">
        <ele>274</ele>
        <time>2019-07-30T18:41:37Z</time>
      </trkpt>
      <trkpt lat="49.1062" lon="6.01052">
        <ele>279</ele>
        <time>2019-07-30T18:41:50Z</time>
      </trkpt>
      <trkpt lat="49.10644" lon="6.01112">
        <ele>282</ele>
        <time>2019-07-30T18:42:06Z</time>
      </trkpt>
      <trkpt lat="49.10671" lon="6.01177">
        <ele>286</ele>
        <time>2019-07-30T18:42:27Z</time>
      </trkpt>
      <trkpt lat="49.10696" lon="6.01239">
        <ele>286</ele>
        <time>2019-07-30T18:42:46Z</time>
      </trkpt>
      <trkpt lat="49.10721" lon="6.01298">
        <ele>287</ele>
        <time>2019-07-30T18:43:03Z</time>
      </trkpt>
      <trkpt lat="49.1076" lon="6.01393">
        <ele>289</ele>
        <time>2019-07-30T18:43:24Z</time>
      </trkpt>
      <trkpt lat="49.10801" lon="6.0149">
        <ele>291</ele>
        <time>2019-07-30T18:43:40Z</time>
      </trkpt>
      <trkpt lat="49.10851" lon="6.01609">
        <ele>292</ele>
        <time>2019-07-30T18:43:58Z</time>
      </trkpt>
      <trkpt lat="49.10892" lon="6.01708">
        <ele>292</ele>
        <time>2019-07-30T18:44:14Z</time>
      </trkpt>
      <trkpt lat="49.10932" lon="6.01803">
        <ele>290</ele>
        <time>2019-07-30T18:44:28Z</time>
      </trkpt>
      <trkpt lat="49.1099" lon="6.01976">
        <ele>289</ele>
        <time>2019-07-30T18:44:45Z</time>
      </trkpt>
      <trkpt lat="49.11024" lon="6.02098">
        <ele>289</ele>
        <time>2019-07-30T18:44:57Z</time>
      </trkpt>
      <trkpt lat="49.11027" lon="6.02108">
        <ele>289</ele>
        <time>2019-07-30T18:44:58Z</time>
      </trkpt>
      <trkpt lat="49.11044" lon="6.02172">
        <ele>289</ele>
        <time>2019-07-30T18:45:04Z</time>
      </trkpt>
      <trkpt lat="49.11093" lon="6.02336">
        <ele>288</ele>
        <time>2019-07-30T18:45:20Z</time>
      </trkpt>
      <trkpt lat="49.11138" lon="6.02463">
        <ele>290</ele>
        <time>2019-07-30T18:45:35Z</time>
      </trkpt>
      <trkpt lat="49.11171" lon="6.02547">
        <ele>291</ele>
        <time>2019-07-30T18:45:48Z</time>
      </trkpt>
      <trkpt lat="49.11216" lon="6.02657">
        <ele>293</ele>
        <time>2019-07-30T18:46:06Z</time>
      </trkpt>
      <trkpt lat="49.11226" lon="6.02682">
        <ele>294</ele>
        <time>2019-07-30T18:46:10Z</time>
      </trkpt>
      <trkpt lat="49.11264" lon="6.0277">
        <ele>295</ele>
        <time>2019-07-30T18:46:24Z</time>
      </trkpt>
      <trkpt lat="49.11277" lon="6.02802">
        <ele>295</ele>
        <time>2019-07-30T18:46:29Z</time>
      </trkpt>
      <trkpt lat="49.11283" lon="6.02822">
        <ele>295</ele>
        <time>2019-07-30T18:46:32Z</time>
      </trkpt>
      <trkpt lat="49.11295" lon="6.02846">
        <ele>296</ele>
        <time>2019-07-30T18:46:36Z</time>
      </trkpt>
      <trkpt lat="49.11351" lon="6.02965">
        <ele>297</ele>
        <time>2019-07-30T18:46:54Z</time>
      </trkpt>
      <trkpt lat="49.11415" lon="6.03103">
        <ele>299</ele>
        <time>2019-07-30T18:47:13Z</time>
      </trkpt>
      <trkpt lat="49.11468" lon="6.03212">
        <ele>298</ele>
        <time>2019-07-30T18:47:28Z</time>
      </trkpt>
      <trkpt lat="49.11526" lon="6.03342">
        <ele>296</ele>
        <time>2019-07-30T18:47:42Z</time>
      </trkpt>
      <trkpt lat="49.11596" lon="6.03489">
        <ele>288</ele>
        <time>2019-07-30T18:47:55Z</time>
      </trkpt>
      <trkpt lat="49.11678" lon="6.0367">
        <ele>279</ele>
        <time>2019-07-30T18:48:09Z</time>
      </trkpt>
      <trkpt lat="49.11753" lon="6.03831">
        <ele>272</ele>
        <time>2019-07-30T18:48:21Z</time>
      </trkpt>
      <trkpt lat="49.11777" lon="6.03888">
        <ele>266</ele>
        <time>2019-07-30T18:48:25Z</time>
      </trkpt>
      <trkpt lat="49.11837" lon="6.04058">
        <ele>265</ele>
        <time>2019-07-30T18:48:38Z</time>
      </trkpt>
      <trkpt lat="49.11854" lon="6.04126">
        <ele>273</ele>
        <time>2019-07-30T18:48:48Z</time>
      </trkpt>
      <trkpt lat="49.11868" lon="6.04188">
        <ele>280</ele>
        <time>2019-07-30T18:49:04Z</time>
      </trkpt>
      <trkpt lat="49.11878" lon="6.04241">
        <ele>282</ele>
        <time>2019-07-30T18:49:19Z</time>
      </trkpt>
      <trkpt lat="49.11886" lon="6.04304">
        <ele>286</ele>
        <time>2019-07-30T18:49:37Z</time>
      </trkpt>
      <trkpt lat="49.1189" lon="6.04356">
        <ele>288</ele>
        <time>2019-07-30T18:49:53Z</time>
      </trkpt>
      <trkpt lat="49.11891" lon="6.04399">
        <ele>288</ele>
        <time>2019-07-30T18:50:08Z</time>
      </trkpt>
      <trkpt lat="49.11891" lon="6.04443">
        <ele>291</ele>
        <time>2019-07-30T18:50:24Z</time>
      </trkpt>
      <trkpt lat="49.11889" lon="6.04496">
        <ele>292</ele>
        <time>2019-07-30T18:50:43Z</time>
      </trkpt>
      <trkpt lat="49.11888" lon="6.04537">
        <ele>296</ele>
        <time>2019-07-30T18:50:58Z</time>
      </trkpt>
      <trkpt lat="49.11887" lon="6.04581">
        <ele>297</ele>
        <time>2019-07-30T18:51:14Z</time>
      </trkpt>
      <trkpt lat="49.11883" lon="6.04617">
        <ele>299</ele>
        <time>2019-07-30T18:51:28Z</time>
      </trkpt>
      <trkpt lat="49.11881" lon="6.04651">
        <ele>300</ele>
        <time>2019-07-30T18:51:41Z</time>
      </trkpt>
      <trkpt lat="49.11874" lon="6.04706">
        <ele>302</ele>
        <time>2019-07-30T18:52:02Z</time>
      </trkpt>
      <trkpt lat="49.11868" lon="6.04743">
        <ele>302</ele>
        <time>2019-07-30T18:52:17Z</time>
      </trkpt>
      <trkpt lat="49.11858" lon="6.04791">
        <ele>303</ele>
        <time>2019-07-30T18:52:36Z</time>
      </trkpt>
      <trkpt lat="49.11849" lon="6.0485">
        <ele>305</ele>
        <time>2019-07-30T18:52:57Z</time>
      </trkpt>
      <trkpt lat="49.11839" lon="6.04913">
        <ele>307</ele>
        <time>2019-07-30T18:53:18Z</time>
      </trkpt>
      <trkpt lat="49.11827" lon="6.04973">
        <ele>310</ele>
        <time>2019-07-30T18:53:36Z</time>
      </trkpt>
      <trkpt lat="49.1181" lon="6.05034">
        <ele>313</ele>
        <time>2019-07-30T18:53:54Z</time>
      </trkpt>
      <trkpt lat="49.1179" lon="6.05086">
        <ele>317</ele>
        <time>2019-07-30T18:54:11Z</time>
      </trkpt>
      <trkpt lat="49.11762" lon="6.05143">
        <ele>318</ele>
        <time>2019-07-30T18:54:30Z</time>
      </trkpt>
      <trkpt lat="49.1173" lon="6.05191">
        <ele>322</ele>
        <time>2019-07-30T18:54:49Z</time>
      </trkpt>
      <trkpt lat="49.11691" lon="6.0524">
        <ele>324</ele>
        <time>2019-07-30T18:55:10Z</time>
      </trkpt>
      <trkpt lat="49.11658" lon="6.05268">
        <ele>327</ele>
        <time>2019-07-30T18:55:24Z</time>
      </trkpt>
      <trkpt lat="49.11617" lon="6.05295">
        <ele>328</ele>
        <time>2019-07-30T18:55:40Z</time>
      </trkpt>
      <trkpt lat="49.11565" lon="6.05321">
        <ele>330</ele>
        <time>2019-07-30T18:55:57Z</time>
      </trkpt>
      <trkpt lat="49.11502" lon="6.05346">
        <ele>332</ele>
        <time>2019-07-30T18:56:14Z</time>
      </trkpt>
      <trkpt lat="49.11416" lon="6.05382">
        <ele>332</ele>
        <time>2019-07-30T18:56:34Z</time>
      </trkpt>
      <trkpt lat="49.11387" lon="6.05394">
        <ele>332</ele>
        <time>2019-07-30T18:56:40Z</time>
      </trkpt>
      <trkpt lat="49.11294" lon="6.05434">
        <ele>334</ele>
        <time>2019-07-30T18:56:59Z</time>
      </trkpt>
      <trkpt lat="49.112" lon="6.05497">
        <ele>335</ele>
        <time>2019-07-30T18:57:17Z</time>
      </trkpt>
      <trkpt lat="49.11124" lon="6.05576">
        <ele>337</ele>
        <time>2019-07-30T18:57:33Z</time>
      </trkpt>
      <trkpt lat="49.11046" lon="6.0569">
        <ele>337</ele>
        <time>2019-07-30T18:57:51Z</time>
      </trkpt>
      <trkpt lat="49.10983" lon="6.05799">
        <ele>336</ele>
        <time>2019-07-30T18:58:07Z</time>
      </trkpt>
      <trkpt lat="49.10946" lon="6.05859">
        <ele>336</ele>
        <time>2019-07-30T18:58:16Z</time>
      </trkpt>
      <trkpt lat="49.10867" lon="6.05996">
        <ele>334</ele>
        <time>2019-07-30T18:58:33Z</time>
      </trkpt>
      <trkpt lat="49.10792" lon="6.06166">
        <ele>323</ele>
        <time>2019-07-30T18:58:48Z</time>
      </trkpt>
      <trkpt lat="49.10775" lon="6.06314">
        <ele>321</ele>
        <time>2019-07-30T18:59:00Z</time>
      </trkpt>
      <trkpt lat="49.10766" lon="6.06476">
        <ele>324</ele>
        <time>2019-07-30T18:59:15Z</time>
      </trkpt>
      <trkpt lat="49.10751" lon="6.06669">
        <ele>320</ele>
        <time>2019-07-30T18:59:30Z</time>
      </trkpt>
      <trkpt lat="49.10709" lon="6.06807">
        <ele>314</ele>
        <time>2019-07-30T18:59:40Z</time>
      </trkpt>
      <trkpt lat="49.10624" lon="6.06921">
        <ele>306</ele>
        <time>2019-07-30T18:59:50Z</time>
      </trkpt>
      <trkpt lat="49.10465" lon="6.07046">
        <ele>303</ele>
        <time>2019-07-30T19:00:05Z</time>
      </trkpt>
      <trkpt lat="49.10345" lon="6.07149">
        <ele>294</ele>
        <time>2019-07-30T19:00:16Z</time>
      </trkpt>
      <trkpt lat="49.10336" lon="6.0716">
        <ele>292</ele>
        <time>2019-07-30T19:00:17Z</time>
      </trkpt>
      <trkpt lat="49.10257" lon="6.07317">
        <ele>280</ele>
        <time>2019-07-30T19:00:28Z</time>
      </trkpt>
      <trkpt lat="49.10248" lon="6.0735">
        <ele>284</ele>
        <time>2019-07-30T19:00:30Z</time>
      </trkpt>
      <trkpt lat="49.10236" lon="6.07539">
        <ele>284</ele>
        <time>2019-07-30T19:00:41Z</time>
      </trkpt>
      <trkpt lat="49.10271" lon="6.07699">
        <ele>274</ele>
        <time>2019-07-30T19:00:51Z</time>
      </trkpt>
      <trkpt lat="49.10332" lon="6.07877">
        <ele>275</ele>
        <time>2019-07-30T19:01:02Z</time>
      </trkpt>
      <trkpt lat="49.10352" lon="6.08059">
        <ele>260</ele>
        <time>2019-07-30T19:01:12Z</time>
      </trkpt>
      <trkpt lat="49.10374" lon="6.08296">
        <ele>253</ele>
        <time>2019-07-30T19:01:25Z</time>
      </trkpt>
      <trkpt lat="49.10387" lon="6.08349">
        <ele>251</ele>
        <time>2019-07-30T19:01:28Z</time>
      </trkpt>
      <trkpt lat="49.10466" lon="6.08512">
        <ele>235</ele>
        <time>2019-07-30T19:01:39Z</time>
      </trkpt>
      <trkpt lat="49.10536" lon="6.08621">
        <ele>224</ele>
        <time>2019-07-30T19:01:47Z</time>
      </trkpt>
      <trkpt lat="49.10551" lon="6.08688">
        <ele>223</ele>
        <time>2019-07-30T19:01:51Z</time>
      </trkpt>
      <trkpt lat="49.10552" lon="6.08719">
        <ele>223</ele>
        <time>2019-07-30T19:01:53Z</time>
      </trkpt>
      <trkpt lat="49.10544" lon="6.08778">
        <ele>225</ele>
        <time>2019-07-30T19:01:58Z</time>
      </trkpt>
      <trkpt lat="49.10524" lon="6.08837">
        <ele>224</ele>
        <time>2019-07-30T19:02:04Z</time>
      </trkpt>
      <trkpt lat="49.10507" lon="6.08914">
        <ele>222</ele>
        <time>2019-07-30T19:02:10Z</time>
      </trkpt>
      <trkpt lat="49.1047" lon="6.08948">
        <ele>219</ele>
        <time>2019-07-30T19:02:15Z</time>
      </trkpt>
      <trkpt lat="49.10461" lon="6.08945">
        <ele>219</ele>
        <time>2019-07-30T19:02:16Z</time>
      </trkpt>
      <trkpt lat="49.1041" lon="6.0893">
        <ele>221</ele>
        <time>2019-07-30T19:02:23Z</time>
      </trkpt>
      <trkpt lat="49.10393" lon="6.08922">
        <ele>221</ele>
        <time>2019-07-30T19:02:26Z</time>
      </trkpt>
      <trkpt lat="49.10364" lon="6.089">
        <ele>224</ele>
        <time>2019-07-30T19:02:32Z</time>
      </trkpt>
      <trkpt lat="49.10355" lon="6.08892">
        <ele>224</ele>
        <time>2019-07-30T19:02:34Z</time>
      </trkpt>
      <trkpt lat="49.10304" lon="6.08844">
        <ele>226</ele>
        <time>2019-07-30T19:02:47Z</time>
      </trkpt>
      <trkpt lat="49.10262" lon="6.088">
        <ele>230</ele>
        <time>2019-07-30T19:03:02Z</time>
      </trkpt>
      <trkpt lat="49.10234" lon="6.08777">
        <ele>230</ele>
        <time>2019-07-30T19:03:15Z</time>
      </trkpt>
      <trkpt lat="49.10206" lon="6.08768">
        <ele>230</ele>
        <time>2019-07-30T19:03:27Z</time>
      </trkpt>
      <trkpt lat="49.10202" lon="6.08766">
        <ele>229</ele>
        <time>2019-07-30T19:03:38Z</time>
      </trkpt>
    </trkseg>
  </trk>
</gpx>